sensor_id;sensor_type;location;lat;lon;timestamp;pressure;altitude;pressure_sealevel;temperature;humidity
69624;BME280;56843;52.020;5.670;2022-12-16T00:00:27;100789.50;;;-3.60;87.80
69624;BME280;56843;52.020;5.670;2022-12-16T00:01:58;100789.38;;;-3.54;87.63
69624;BME280;56843;52.020;5.670;2022-12-16T00:03:28;100789.25;;;-3.47;87.22
69624;BME280;56843;52.020;5.670;2022-12-16T00:04:59;100791.97;;;-3.42;87.14
69624;BME280;56843;52.020;5.670;2022-12-16T00:06:32;100791.50;;;-3.39;87.03
69624;BME280;56843;52.020;5.670;2022-12-16T00:08:03;100796.50;;;-3.38;87.18
69624;BME280;56843;52.020;5.670;2022-12-16T00:09:34;100800.94;;;-3.38;87.27
69624;BME280;56843;52.020;5.670;2022-12-16T00:11:07;100802.75;;;-3.39;87.05
69624;BME280;56843;52.020;5.670;2022-12-16T00:12:38;100804.09;;;-3.36;87.21
69624;BME280;56843;52.020;5.670;2022-12-16T00:14:08;100793.19;;;-3.33;87.16
69624;BME280;56843;52.020;5.670;2022-12-16T00:15:39;100785.91;;;-3.31;87.13
69624;BME280;56843;52.020;5.670;2022-12-16T00:17:09;100798.53;;;-3.28;86.98
69624;BME280;56843;52.020;5.670;2022-12-16T00:18:40;100794.66;;;-3.26;87.13
69624;BME280;56843;52.020;5.670;2022-12-16T00:20:11;100795.53;;;-3.20;86.97
69624;BME280;56843;52.020;5.670;2022-12-16T00:21:42;100791.09;;;-3.20;87.20
69624;BME280;56843;52.020;5.670;2022-12-16T00:23:13;100788.50;;;-3.20;87.02
69624;BME280;56843;52.020;5.670;2022-12-16T00:24:43;100786.44;;;-3.18;87.19
69624;BME280;56843;52.020;5.670;2022-12-16T00:26:15;100793.47;;;-3.18;87.35
69624;BME280;56843;52.020;5.670;2022-12-16T00:27:45;100801.31;;;-3.18;87.30
69624;BME280;56843;52.020;5.670;2022-12-16T00:29:16;100798.50;;;-3.17;87.45
69624;BME280;56843;52.020;5.670;2022-12-16T00:30:48;100801.97;;;-3.11;87.32
69624;BME280;56843;52.020;5.670;2022-12-16T00:32:19;100808.31;;;-3.07;87.14
69624;BME280;56843;52.020;5.670;2022-12-16T00:33:50;100807.06;;;-3.05;86.98
69624;BME280;56843;52.020;5.670;2022-12-16T00:35:22;100806.63;;;-3.02;87.29
69624;BME280;56843;52.020;5.670;2022-12-16T00:36:52;100807.47;;;-2.96;86.83
69624;BME280;56843;52.020;5.670;2022-12-16T00:38:24;100796.81;;;-2.94;87.04
69624;BME280;56843;52.020;5.670;2022-12-16T00:39:55;100804.41;;;-2.93;87.14
69624;BME280;56843;52.020;5.670;2022-12-16T00:41:26;100807.84;;;-2.92;86.89
69624;BME280;56843;52.020;5.670;2022-12-16T00:42:56;100806.34;;;-2.88;86.90
69624;BME280;56843;52.020;5.670;2022-12-16T00:44:27;100810.31;;;-2.86;86.68
69624;BME280;56843;52.020;5.670;2022-12-16T00:45:57;100796.19;;;-2.85;86.88
69624;BME280;56843;52.020;5.670;2022-12-16T00:47:28;100805.63;;;-2.84;86.67
69624;BME280;56843;52.020;5.670;2022-12-16T00:48:58;100807.22;;;-2.83;86.82
69624;BME280;56843;52.020;5.670;2022-12-16T00:50:29;100804.13;;;-2.80;86.40
69624;BME280;56843;52.020;5.670;2022-12-16T00:51:59;100811.97;;;-2.80;86.67
69624;BME280;56843;52.020;5.670;2022-12-16T00:53:30;100813.78;;;-2.80;86.74
69624;BME280;56843;52.020;5.670;2022-12-16T00:55:01;100811.75;;;-2.78;86.89
69624;BME280;56843;52.020;5.670;2022-12-16T00:56:31;100809.91;;;-2.78;86.82
69624;BME280;56843;52.020;5.670;2022-12-16T00:58:02;100820.16;;;-2.76;86.68
69624;BME280;56843;52.020;5.670;2022-12-16T00:59:33;100818.09;;;-2.74;86.71
69624;BME280;56843;52.020;5.670;2022-12-16T01:01:04;100815.25;;;-2.73;86.74
69624;BME280;56843;52.020;5.670;2022-12-16T01:02:35;100813.19;;;-2.71;86.72
69624;BME280;56843;52.020;5.670;2022-12-16T01:04:05;100815.56;;;-2.69;86.53
69624;BME280;56843;52.020;5.670;2022-12-16T01:05:37;100813.75;;;-2.69;86.60
69624;BME280;56843;52.020;5.670;2022-12-16T01:07:08;100817.41;;;-2.70;86.66
69624;BME280;56843;52.020;5.670;2022-12-16T01:08:38;100820.22;;;-2.71;86.46
69624;BME280;56843;52.020;5.670;2022-12-16T01:10:10;100816.03;;;-2.72;86.67
69624;BME280;56843;52.020;5.670;2022-12-16T01:11:40;100820.47;;;-2.73;86.71
69624;BME280;56843;52.020;5.670;2022-12-16T01:13:11;100821.47;;;-2.74;86.79
69624;BME280;56843;52.020;5.670;2022-12-16T01:14:41;100824.19;;;-2.69;86.63
69624;BME280;56843;52.020;5.670;2022-12-16T01:16:12;100821.38;;;-2.67;86.56
69624;BME280;56843;52.020;5.670;2022-12-16T01:17:44;100821.13;;;-2.66;86.27
69624;BME280;56843;52.020;5.670;2022-12-16T01:19:15;100827.16;;;-2.65;86.47
69624;BME280;56843;52.020;5.670;2022-12-16T01:20:45;100832.69;;;-2.62;86.52
69624;BME280;56843;52.020;5.670;2022-12-16T01:22:16;100837.13;;;-2.62;86.50
69624;BME280;56843;52.020;5.670;2022-12-16T01:23:47;100830.31;;;-2.63;86.48
69624;BME280;56843;52.020;5.670;2022-12-16T01:25:17;100841.34;;;-2.61;86.50
69624;BME280;56843;52.020;5.670;2022-12-16T01:26:48;100831.44;;;-2.59;86.24
69624;BME280;56843;52.020;5.670;2022-12-16T01:28:18;100838.81;;;-2.56;86.26
69624;BME280;56843;52.020;5.670;2022-12-16T01:29:49;100833.34;;;-2.55;86.35
69624;BME280;56843;52.020;5.670;2022-12-16T01:31:21;100842.53;;;-2.52;86.23
69624;BME280;56843;52.020;5.670;2022-12-16T01:32:52;100837.88;;;-2.50;86.42
69624;BME280;56843;52.020;5.670;2022-12-16T01:34:23;100849.69;;;-2.48;86.29
69624;BME280;56843;52.020;5.670;2022-12-16T01:36:07;100848.63;;;-2.47;86.20
69624;BME280;56843;52.020;5.670;2022-12-16T01:37:38;100851.03;;;-2.45;85.78
69624;BME280;56843;52.020;5.670;2022-12-16T01:39:09;100853.66;;;-2.45;86.13
69624;BME280;56843;52.020;5.670;2022-12-16T01:40:40;100851.34;;;-2.42;86.00
69624;BME280;56843;52.020;5.670;2022-12-16T01:42:12;100852.91;;;-2.41;85.96
69624;BME280;56843;52.020;5.670;2022-12-16T01:43:44;100859.50;;;-2.38;86.00
69624;BME280;56843;52.020;5.670;2022-12-16T01:45:29;100865.84;;;-2.34;85.60
69624;BME280;56843;52.020;5.670;2022-12-16T01:47:02;100867.19;;;-2.32;85.90
69624;BME280;56843;52.020;5.670;2022-12-16T01:50:15;100861.75;;;-2.30;85.71
69624;BME280;56843;52.020;5.670;2022-12-16T01:51:46;100864.94;;;-2.28;85.56
69624;BME280;56843;52.020;5.670;2022-12-16T01:53:17;100855.81;;;-2.26;85.46
69624;BME280;56843;52.020;5.670;2022-12-16T01:54:56;100867.59;;;-2.23;85.33
69624;BME280;56843;52.020;5.670;2022-12-16T01:56:30;100870.22;;;-2.23;85.40
69624;BME280;56843;52.020;5.670;2022-12-16T01:58:09;100870.00;;;-2.21;85.41
69624;BME280;56843;52.020;5.670;2022-12-16T01:59:43;100874.44;;;-2.22;85.20
69624;BME280;56843;52.020;5.670;2022-12-16T02:02:57;100873.09;;;-2.25;85.44
69624;BME280;56843;52.020;5.670;2022-12-16T02:04:27;100883.31;;;-2.23;85.31
69624;BME280;56843;52.020;5.670;2022-12-16T02:05:58;100875.69;;;-2.25;85.37
69624;BME280;56843;52.020;5.670;2022-12-16T02:07:29;100876.75;;;-2.26;85.20
69624;BME280;56843;52.020;5.670;2022-12-16T02:09:03;100876.97;;;-2.27;85.22
69624;BME280;56843;52.020;5.670;2022-12-16T02:10:53;100878.22;;;-2.30;85.20
69624;BME280;56843;52.020;5.670;2022-12-16T02:12:49;100884.50;;;-2.31;85.35
69624;BME280;56843;52.020;5.670;2022-12-16T02:14:48;100889.47;;;-2.29;85.26
69624;BME280;56843;52.020;5.670;2022-12-16T02:16:39;100891.88;;;-2.28;85.22
69624;BME280;56843;52.020;5.670;2022-12-16T02:24:35;100895.81;;;-2.25;84.85
69624;BME280;56843;52.020;5.670;2022-12-16T02:39:37;100895.22;;;-2.15;84.48
69624;BME280;56843;52.020;5.670;2022-12-16T02:41:16;100887.91;;;-2.13;84.54
69624;BME280;56843;52.020;5.670;2022-12-16T02:42:59;100886.91;;;-2.12;84.48
69624;BME280;56843;52.020;5.670;2022-12-16T02:44:47;100891.66;;;-2.09;84.66
69624;BME280;56843;52.020;5.670;2022-12-16T02:46:26;100891.44;;;-2.08;84.61
69624;BME280;56843;52.020;5.670;2022-12-16T02:47:57;100890.16;;;-2.05;84.53
69624;BME280;56843;52.020;5.670;2022-12-16T02:50:58;100888.09;;;-2.03;84.61
69624;BME280;56843;52.020;5.670;2022-12-16T02:52:30;100897.28;;;-2.01;84.45
69624;BME280;56843;52.020;5.670;2022-12-16T02:54:04;100897.06;;;-1.99;84.42
69624;BME280;56843;52.020;5.670;2022-12-16T02:57:58;100888.16;;;-1.98;84.21
69624;BME280;56843;52.020;5.670;2022-12-16T03:03:39;100914.47;;;-2.05;84.37
69624;BME280;56843;52.020;5.670;2022-12-16T03:05:22;100906.88;;;-2.06;84.54
69624;BME280;56843;52.020;5.670;2022-12-16T03:06:55;100910.75;;;-2.09;84.65
69624;BME280;56843;52.020;5.670;2022-12-16T03:08:33;100909.97;;;-2.09;84.59
69624;BME280;56843;52.020;5.670;2022-12-16T03:10:07;100901.56;;;-2.11;84.88
69624;BME280;56843;52.020;5.670;2022-12-16T03:11:40;100911.00;;;-2.10;84.77
69624;BME280;56843;52.020;5.670;2022-12-16T03:13:16;100920.44;;;-2.09;84.99
69624;BME280;56843;52.020;5.670;2022-12-16T03:14:52;100915.44;;;-2.11;84.86
69624;BME280;56843;52.020;5.670;2022-12-16T03:16:29;100920.34;;;-2.14;84.89
69624;BME280;56843;52.020;5.670;2022-12-16T03:18:01;100923.44;;;-2.17;84.99
69624;BME280;56843;52.020;5.670;2022-12-16T03:19:35;100927.31;;;-2.20;85.18
69624;BME280;56843;52.020;5.670;2022-12-16T03:21:08;100922.31;;;-2.21;85.28
69624;BME280;56843;52.020;5.670;2022-12-16T03:22:41;100926.75;;;-2.22;85.22
69624;BME280;56843;52.020;5.670;2022-12-16T03:24:14;100931.97;;;-2.22;85.31
69624;BME280;56843;52.020;5.670;2022-12-16T03:25:47;100942.44;;;-2.22;85.31
69624;BME280;56843;52.020;5.670;2022-12-16T03:27:43;100949.50;;;-2.22;85.45
69624;BME280;56843;52.020;5.670;2022-12-16T03:31:22;100946.09;;;-2.23;85.48
69624;BME280;56843;52.020;5.670;2022-12-16T03:33:20;100949.75;;;-2.24;85.44
69624;BME280;56843;52.020;5.670;2022-12-16T03:35:06;100958.84;;;-2.27;85.40
69624;BME280;56843;52.020;5.670;2022-12-16T03:36:48;100955.66;;;-2.29;85.65
69624;BME280;56843;52.020;5.670;2022-12-16T03:38:25;100953.84;;;-2.28;85.34
69624;BME280;56843;52.020;5.670;2022-12-16T03:39:59;100952.59;;;-2.26;85.59
69624;BME280;56843;52.020;5.670;2022-12-16T03:41:31;100947.38;;;-2.26;85.55
69624;BME280;56843;52.020;5.670;2022-12-16T03:43:03;100959.41;;;-2.25;85.57
69624;BME280;56843;52.020;5.670;2022-12-16T03:44:34;100950.53;;;-2.23;85.72
69624;BME280;56843;52.020;5.670;2022-12-16T03:46:06;100955.53;;;-2.22;85.57
69624;BME280;56843;52.020;5.670;2022-12-16T03:47:38;100957.91;;;-2.20;85.46
69624;BME280;56843;52.020;5.670;2022-12-16T03:49:10;100963.69;;;-2.18;85.46
69624;BME280;56843;52.020;5.670;2022-12-16T03:50:41;100951.97;;;-2.16;85.46
69624;BME280;56843;52.020;5.670;2022-12-16T03:52:12;100955.13;;;-2.14;85.41
69624;BME280;56843;52.020;5.670;2022-12-16T03:53:42;100959.34;;;-2.13;85.39
69624;BME280;56843;52.020;5.670;2022-12-16T03:55:13;100952.06;;;-2.11;85.26
69624;BME280;56843;52.020;5.670;2022-12-16T03:56:43;100958.31;;;-2.12;85.36
69624;BME280;56843;52.020;5.670;2022-12-16T03:58:14;100962.53;;;-2.11;85.45
69624;BME280;56843;52.020;5.670;2022-12-16T03:59:44;100955.47;;;-2.10;85.15
69624;BME280;56843;52.020;5.670;2022-12-16T04:01:15;100967.75;;;-2.11;85.46
69624;BME280;56843;52.020;5.670;2022-12-16T04:02:45;100965.38;;;-2.12;85.36
69624;BME280;56843;52.020;5.670;2022-12-16T04:04:16;100973.25;;;-2.12;85.37
69624;BME280;56843;52.020;5.670;2022-12-16T04:05:47;100966.16;;;-2.12;85.38
69624;BME280;56843;52.020;5.670;2022-12-16T04:07:18;100969.59;;;-2.11;85.60
69624;BME280;56843;52.020;5.670;2022-12-16T04:08:53;100985.28;;;-2.11;85.56
69624;BME280;56843;52.020;5.670;2022-12-16T04:10:24;100978.47;;;-2.12;85.82
69624;BME280;56843;52.020;5.670;2022-12-16T04:12:13;100988.13;;;-2.13;85.62
69624;BME280;56843;52.020;5.670;2022-12-16T04:14:02;100982.09;;;-2.13;85.70
69624;BME280;56843;52.020;5.670;2022-12-16T04:15:51;100988.38;;;-2.14;85.75
69624;BME280;56843;52.020;5.670;2022-12-16T04:17:41;100984.16;;;-2.15;85.96
69624;BME280;56843;52.020;5.670;2022-12-16T04:19:33;100991.44;;;-2.17;85.86
69624;BME280;56843;52.020;5.670;2022-12-16T04:21:23;100992.25;;;-2.17;86.07
69624;BME280;56843;52.020;5.670;2022-12-16T04:23:12;100984.06;;;-2.20;86.19
69624;BME280;56843;52.020;5.670;2022-12-16T04:25:09;100992.72;;;-2.20;86.09
69624;BME280;56843;52.020;5.670;2022-12-16T04:26:41;100991.34;;;-2.22;86.62
69624;BME280;56843;52.020;5.670;2022-12-16T04:28:30;100994.75;;;-2.22;86.27
69624;BME280;56843;52.020;5.670;2022-12-16T04:30:01;101004.22;;;-2.21;86.44
69624;BME280;56843;52.020;5.670;2022-12-16T04:31:50;100993.75;;;-2.21;86.32
69624;BME280;56843;52.020;5.670;2022-12-16T04:33:21;101000.56;;;-2.20;86.50
69624;BME280;56843;52.020;5.670;2022-12-16T04:35:11;100999.75;;;-2.20;86.45
69624;BME280;56843;52.020;5.670;2022-12-16T04:37:01;101000.31;;;-2.18;86.38
69624;BME280;56843;52.020;5.670;2022-12-16T04:38:50;101000.31;;;-2.18;86.48
69624;BME280;56843;52.020;5.670;2022-12-16T04:40:41;101011.38;;;-2.16;86.49
69624;BME280;56843;52.020;5.670;2022-12-16T04:42:31;101014.75;;;-2.16;86.47
69624;BME280;56843;52.020;5.670;2022-12-16T04:44:20;101016.34;;;-2.15;86.47
69624;BME280;56843;52.020;5.670;2022-12-16T04:46:09;101010.31;;;-2.15;86.71
69624;BME280;56843;52.020;5.670;2022-12-16T04:47:59;101006.91;;;-2.16;86.38
69624;BME280;56843;52.020;5.670;2022-12-16T04:49:48;101015.31;;;-2.14;86.46
69624;BME280;56843;52.020;5.670;2022-12-16T04:51:37;101022.38;;;-2.14;86.57
69624;BME280;56843;52.020;5.670;2022-12-16T04:53:26;101014.53;;;-2.14;86.39
69624;BME280;56843;52.020;5.670;2022-12-16T04:55:15;101010.88;;;-2.13;86.33
69624;BME280;56843;52.020;5.670;2022-12-16T04:57:05;101011.94;;;-2.14;86.50
69624;BME280;56843;52.020;5.670;2022-12-16T04:58:54;101016.91;;;-2.13;86.70
69624;BME280;56843;52.020;5.670;2022-12-16T05:00:45;101015.09;;;-2.12;86.66
69624;BME280;56843;52.020;5.670;2022-12-16T05:02:34;101020.88;;;-2.10;86.53
69624;BME280;56843;52.020;5.670;2022-12-16T05:04:24;101013.84;;;-2.10;86.58
69624;BME280;56843;52.020;5.670;2022-12-16T05:06:13;101017.03;;;-2.08;86.80
69624;BME280;56843;52.020;5.670;2022-12-16T05:08:02;101016.31;;;-2.03;86.56
69624;BME280;56843;52.020;5.670;2022-12-16T05:09:51;101024.16;;;-2.03;86.56
69624;BME280;56843;52.020;5.670;2022-12-16T05:11:41;101014.47;;;-2.03;86.65
69624;BME280;56843;52.020;5.670;2022-12-16T05:13:30;101021.31;;;-2.02;86.51
69624;BME280;56843;52.020;5.670;2022-12-16T05:15:19;101014.47;;;-2.03;86.72
69624;BME280;56843;52.020;5.670;2022-12-16T05:17:08;101019.50;;;-2.01;86.79
69624;BME280;56843;52.020;5.670;2022-12-16T05:18:57;101021.06;;;-2.00;86.62
69624;BME280;56843;52.020;5.670;2022-12-16T05:20:46;101011.41;;;-2.00;86.59
69624;BME280;56843;52.020;5.670;2022-12-16T05:22:35;101013.78;;;-1.98;86.79
69624;BME280;56843;52.020;5.670;2022-12-16T05:24:24;101019.81;;;-1.98;86.59
69624;BME280;56843;52.020;5.670;2022-12-16T05:26:13;101022.19;;;-1.96;86.78
69624;BME280;56843;52.020;5.670;2022-12-16T05:28:02;101030.03;;;-1.96;86.85
69624;BME280;56843;52.020;5.670;2022-12-16T05:29:51;101027.41;;;-1.96;86.74
69624;BME280;56843;52.020;5.670;2022-12-16T05:31:40;101034.72;;;-1.98;86.95
69624;BME280;56843;52.020;5.670;2022-12-16T05:33:29;101025.28;;;-1.99;87.14
69624;BME280;56843;52.020;5.670;2022-12-16T05:35:18;101029.97;;;-2.01;86.92
69624;BME280;56843;52.020;5.670;2022-12-16T05:37:07;101033.84;;;-2.04;87.32
69624;BME280;56843;52.020;5.670;2022-12-16T05:39:10;101037.94;;;-2.08;87.40
69624;BME280;56843;52.020;5.670;2022-12-16T05:40:59;101040.00;;;-2.10;87.77
69624;BME280;56843;52.020;5.670;2022-12-16T05:42:53;101044.91;;;-2.13;87.64
69624;BME280;56843;52.020;5.670;2022-12-16T05:44:42;101048.75;;;-2.16;87.64
69624;BME280;56843;52.020;5.670;2022-12-16T05:46:31;101050.00;;;-2.18;87.80
69624;BME280;56843;52.020;5.670;2022-12-16T05:48:20;101045.47;;;-2.23;87.87
69624;BME280;56843;52.020;5.670;2022-12-16T05:50:09;101054.06;;;-2.28;88.01
69624;BME280;56843;52.020;5.670;2022-12-16T05:52:11;101056.44;;;-2.38;88.32
69624;BME280;56843;52.020;5.670;2022-12-16T05:54:00;101060.69;;;-2.48;88.06
69624;BME280;56843;52.020;5.670;2022-12-16T05:55:49;101067.03;;;-2.56;88.38
69624;BME280;56843;52.020;5.670;2022-12-16T05:57:39;101053.53;;;-2.64;88.51
69624;BME280;56843;52.020;5.670;2022-12-16T05:59:28;101058.31;;;-2.73;88.78
69624;BME280;56843;52.020;5.670;2022-12-16T06:01:16;101055.50;;;-2.83;89.12
69624;BME280;56843;52.020;5.670;2022-12-16T06:03:06;101063.66;;;-2.91;89.33
69624;BME280;56843;52.020;5.670;2022-12-16T06:04:55;101067.84;;;-3.02;89.48
69624;BME280;56843;52.020;5.670;2022-12-16T06:06:44;101068.97;;;-3.09;89.39
69624;BME280;56843;52.020;5.670;2022-12-16T06:08:33;101061.91;;;-3.20;89.51
69624;BME280;56843;52.020;5.670;2022-12-16T06:10:22;101065.66;;;-3.28;89.67
69624;BME280;56843;52.020;5.670;2022-12-16T06:12:11;101066.78;;;-3.35;89.83
69624;BME280;56843;52.020;5.670;2022-12-16T06:14:00;101061.09;;;-3.44;89.93
69624;BME280;56843;52.020;5.670;2022-12-16T06:15:49;101066.84;;;-3.53;90.10
69624;BME280;56843;52.020;5.670;2022-12-16T06:17:45;101073.75;;;-3.59;90.11
69624;BME280;56843;52.020;5.670;2022-12-16T06:19:35;101075.91;;;-3.67;90.26
69624;BME280;56843;52.020;5.670;2022-12-16T06:21:24;101075.75;;;-3.72;90.82
69624;BME280;56843;52.020;5.670;2022-12-16T06:23:13;101080.63;;;-3.76;91.05
69624;BME280;56843;52.020;5.670;2022-12-16T06:25:02;101081.06;;;-3.79;90.74
69624;BME280;56843;52.020;5.670;2022-12-16T06:26:51;101074.31;;;-3.87;90.88
69624;BME280;56843;52.020;5.670;2022-12-16T06:28:40;101070.22;;;-3.94;90.92
69624;BME280;56843;52.020;5.670;2022-12-16T06:30:29;101075.31;;;-3.99;90.93
69624;BME280;56843;52.020;5.670;2022-12-16T06:32:18;101079.03;;;-4.07;90.93
69624;BME280;56843;52.020;5.670;2022-12-16T06:34:07;101087.69;;;-4.13;91.24
69624;BME280;56843;52.020;5.670;2022-12-16T06:35:56;101078.97;;;-4.18;91.02
69624;BME280;56843;52.020;5.670;2022-12-16T06:37:46;101082.44;;;-4.24;91.21
69624;BME280;56843;52.020;5.670;2022-12-16T06:39:35;101089.53;;;-4.31;91.03
69624;BME280;56843;52.020;5.670;2022-12-16T06:41:24;101093.00;;;-4.37;91.26
69624;BME280;56843;52.020;5.670;2022-12-16T06:43:13;101101.09;;;-4.45;91.52
69624;BME280;56843;52.020;5.670;2022-12-16T06:45:02;101098.16;;;-4.49;91.39
69624;BME280;56843;52.020;5.670;2022-12-16T06:46:51;101103.78;;;-4.52;91.61
69624;BME280;56843;52.020;5.670;2022-12-16T06:48:41;101112.25;;;-4.57;91.63
69624;BME280;56843;52.020;5.670;2022-12-16T06:50:29;101108.25;;;-4.59;91.80
69624;BME280;56843;52.020;5.670;2022-12-16T06:52:19;101116.72;;;-4.64;91.55
69624;BME280;56843;52.020;5.670;2022-12-16T06:54:08;101117.94;;;-4.66;91.61
69624;BME280;56843;52.020;5.670;2022-12-16T06:55:57;101117.59;;;-4.70;91.71
69624;BME280;56843;52.020;5.670;2022-12-16T06:57:57;101119.03;;;-4.74;91.79
69624;BME280;56843;52.020;5.670;2022-12-16T06:59:46;101116.25;;;-4.79;91.66
69624;BME280;56843;52.020;5.670;2022-12-16T07:01:37;101119.50;;;-4.83;91.56
69624;BME280;56843;52.020;5.670;2022-12-16T07:03:27;101127.72;;;-4.86;91.62
69624;BME280;56843;52.020;5.670;2022-12-16T07:05:16;101123.97;;;-4.90;91.73
69624;BME280;56843;52.020;5.670;2022-12-16T07:07:05;101128.00;;;-4.94;91.72
69624;BME280;56843;52.020;5.670;2022-12-16T07:09:11;101129.22;;;-4.97;91.93
69624;BME280;56843;52.020;5.670;2022-12-16T07:11:00;101130.66;;;-5.01;91.74
69624;BME280;56843;52.020;5.670;2022-12-16T07:12:50;101132.09;;;-5.05;91.82
69624;BME280;56843;52.020;5.670;2022-12-16T07:14:39;101141.13;;;-5.07;91.96
69624;BME280;56843;52.020;5.670;2022-12-16T07:16:28;101146.16;;;-5.12;92.04
69624;BME280;56843;52.020;5.670;2022-12-16T07:18:17;101149.97;;;-5.15;91.78
69624;BME280;56843;52.020;5.670;2022-12-16T07:20:07;101147.81;;;-5.18;92.12
69624;BME280;56843;52.020;5.670;2022-12-16T07:21:56;101146.66;;;-5.22;92.02
69624;BME280;56843;52.020;5.670;2022-12-16T07:23:45;101155.66;;;-5.25;91.98
69624;BME280;56843;52.020;5.670;2022-12-16T07:25:34;101158.28;;;-5.25;92.09
69624;BME280;56843;52.020;5.670;2022-12-16T07:27:23;101153.47;;;-5.28;91.98
69624;BME280;56843;52.020;5.670;2022-12-16T07:29:12;101159.47;;;-5.27;92.04
69624;BME280;56843;52.020;5.670;2022-12-16T07:31:01;101171.69;;;-5.28;91.89
69624;BME280;56843;52.020;5.670;2022-12-16T07:32:50;101157.09;;;-5.29;91.61
69624;BME280;56843;52.020;5.670;2022-12-16T07:34:39;101168.50;;;-5.30;91.90
69624;BME280;56843;52.020;5.670;2022-12-16T07:36:29;101167.91;;;-5.32;91.73
69624;BME280;56843;52.020;5.670;2022-12-16T07:38:18;101174.91;;;-5.32;91.87
69624;BME280;56843;52.020;5.670;2022-12-16T07:40:07;101174.72;;;-5.31;91.98
69624;BME280;56843;52.020;5.670;2022-12-16T07:41:56;101173.94;;;-5.31;91.73
69624;BME280;56843;52.020;5.670;2022-12-16T07:43:45;101181.53;;;-5.30;91.55
69624;BME280;56843;52.020;5.670;2022-12-16T07:45:35;101172.72;;;-5.29;91.68
69624;BME280;56843;52.020;5.670;2022-12-16T07:47:25;101181.69;;;-5.25;91.57
69624;BME280;56843;52.020;5.670;2022-12-16T07:49:14;101184.47;;;-5.19;91.55
69624;BME280;56843;52.020;5.670;2022-12-16T07:51:03;101173.03;;;-5.18;91.37
69624;BME280;56843;52.020;5.670;2022-12-16T07:52:54;101176.66;;;-5.19;91.14
69624;BME280;56843;52.020;5.670;2022-12-16T07:54:43;101187.28;;;-5.21;91.19
69624;BME280;56843;52.020;5.670;2022-12-16T07:56:33;101184.09;;;-5.23;91.39
69624;BME280;56843;52.020;5.670;2022-12-16T07:58:22;101190.31;;;-5.24;91.15
69624;BME280;56843;52.020;5.670;2022-12-16T08:00:12;101193.69;;;-5.24;91.18
69624;BME280;56843;52.020;5.670;2022-12-16T08:02:01;101194.72;;;-5.25;91.35
69624;BME280;56843;52.020;5.670;2022-12-16T08:03:50;101198.31;;;-5.26;91.21
69624;BME280;56843;52.020;5.670;2022-12-16T08:05:39;101202.53;;;-5.25;91.38
69624;BME280;56843;52.020;5.670;2022-12-16T08:07:28;101208.53;;;-5.24;91.21
69624;BME280;56843;52.020;5.670;2022-12-16T08:09:17;101208.53;;;-5.24;91.06
69624;BME280;56843;52.020;5.670;2022-12-16T08:11:06;101217.34;;;-5.25;91.51
69624;BME280;56843;52.020;5.670;2022-12-16T08:13:02;101218.53;;;-5.28;91.00
69624;BME280;56843;52.020;5.670;2022-12-16T08:14:52;101226.34;;;-5.28;91.03
69624;BME280;56843;52.020;5.670;2022-12-16T08:16:41;101229.53;;;-5.26;91.15
69624;BME280;56843;52.020;5.670;2022-12-16T08:18:30;101234.34;;;-5.22;91.28
69624;BME280;56843;52.020;5.670;2022-12-16T08:20:19;101232.13;;;-5.19;91.12
69624;BME280;56843;52.020;5.670;2022-12-16T08:22:08;101232.47;;;-5.09;91.41
69624;BME280;56843;52.020;5.670;2022-12-16T08:23:57;101235.22;;;-5.04;90.88
69624;BME280;56843;52.020;5.670;2022-12-16T08:25:46;101241.84;;;-5.01;90.69
69624;BME280;56843;52.020;5.670;2022-12-16T08:27:35;101251.84;;;-4.98;90.75
69624;BME280;56843;52.020;5.670;2022-12-16T08:29:24;101256.66;;;-4.95;90.36
69624;BME280;56843;52.020;5.670;2022-12-16T08:31:13;101251.00;;;-4.92;90.72
69624;BME280;56843;52.020;5.670;2022-12-16T08:33:02;101250.59;;;-4.89;90.77
69624;BME280;56843;52.020;5.670;2022-12-16T08:34:51;101250.75;;;-4.84;90.51
69624;BME280;56843;52.020;5.670;2022-12-16T08:36:41;101256.34;;;-4.81;90.12
69624;BME280;56843;52.020;5.670;2022-12-16T08:38:30;101256.13;;;-4.79;90.21
69624;BME280;56843;52.020;5.670;2022-12-16T08:40:18;101265.56;;;-4.78;90.12
69624;BME280;56843;52.020;5.670;2022-12-16T08:42:07;101262.72;;;-4.77;90.26
69624;BME280;56843;52.020;5.670;2022-12-16T08:43:57;101266.13;;;-4.76;90.10
69624;BME280;56843;52.020;5.670;2022-12-16T08:45:46;101269.31;;;-4.74;90.24
69624;BME280;56843;52.020;5.670;2022-12-16T08:47:35;101276.56;;;-4.76;90.04
69624;BME280;56843;52.020;5.670;2022-12-16T08:49:24;101277.94;;;-4.74;90.17
69624;BME280;56843;52.020;5.670;2022-12-16T08:51:13;101277.91;;;-4.67;90.56
69624;BME280;56843;52.020;5.670;2022-12-16T08:53:02;101282.03;;;-4.60;90.71
69624;BME280;56843;52.020;5.670;2022-12-16T08:54:51;101281.31;;;-4.42;90.56
69624;BME280;56843;52.020;5.670;2022-12-16T08:56:41;101281.59;;;-4.25;90.22
69624;BME280;56843;52.020;5.670;2022-12-16T08:58:30;101290.47;;;-4.08;89.99
69624;BME280;56843;52.020;5.670;2022-12-16T09:00:19;101282.47;;;-3.89;89.79
69624;BME280;56843;52.020;5.670;2022-12-16T09:02:09;101287.28;;;-3.67;89.58
69624;BME280;56843;52.020;5.670;2022-12-16T09:03:59;101290.03;;;-3.44;89.19
69624;BME280;56843;52.020;5.670;2022-12-16T09:05:48;101289.13;;;-3.20;88.89
69624;BME280;56843;52.020;5.670;2022-12-16T09:07:37;101295.28;;;-2.96;88.56
69624;BME280;56843;52.020;5.670;2022-12-16T09:09:26;101293.13;;;-2.70;88.10
69624;BME280;56843;52.020;5.670;2022-12-16T09:11:15;101294.97;;;-2.47;87.61
69624;BME280;56843;52.020;5.670;2022-12-16T09:13:12;101299.47;;;-2.25;87.26
69624;BME280;56843;52.020;5.670;2022-12-16T09:15:01;101294.81;;;-1.99;87.01
69624;BME280;56843;52.020;5.670;2022-12-16T09:16:50;101292.19;;;-1.76;86.68
69624;BME280;56843;52.020;5.670;2022-12-16T09:18:39;101294.00;;;-1.54;86.31
69624;BME280;56843;52.020;5.670;2022-12-16T09:20:28;101294.16;;;-1.32;86.22
69624;BME280;56843;52.020;5.670;2022-12-16T09:22:17;101296.97;;;-1.10;86.04
69624;BME280;56843;52.020;5.670;2022-12-16T09:24:06;101309.44;;;-0.89;85.83
69624;BME280;56843;52.020;5.670;2022-12-16T09:25:56;101290.88;;;-0.71;85.69
69624;BME280;56843;52.020;5.670;2022-12-16T09:27:48;101296.94;;;-0.54;85.67